God — WDH3056 — position and weather

sailwx.info

Track history (hours):
 
Tides and Currents Weather Stations Pressure Air Temp Water Temp Dewpoint Dewpoint Depression Visibility Wind Speed Wind Dir Waves Ship Positions

God

Owner: Quality tug services LLC, broussard, LA. More information available from US FCC via Universal Licensing System and Coast Guard Vessel Documentation Center.

Last reported at 2018-Jan-22 15:30 UTC. Time now 2018-Jan-22 15:51 UTC.
Position N 30°08' W 093°20'.

Length 18 m; draft 3 m.

Type: Towing. MMSI: 367603820.

Date/timePositionNaut miles runAvg speedWind from/ knotsBaromVisibWave heightAir tempDewpointWater temp
2018-Jan-22 15:30N 30°08' W 093°20'0 0.1
2018-Jan-22 15:00N 30°08' W 093°20'0 0.1
2018-Jan-22 14:30N 30°08' W 093°20'0 0.0
2018-Jan-22 14:00N 30°08' W 093°20'0 0.0
2018-Jan-22 13:30N 30°08' W 093°20'0 0.0
2018-Jan-22 13:00N 30°08' W 093°20'0 0.0
2018-Jan-22 12:30N 30°08' W 093°20'0 0.0
2018-Jan-22 12:00N 30°08' W 093°20'0 0.0
2018-Jan-22 11:30N 30°08' W 093°20'0 0.0
2018-Jan-22 11:00N 30°08' W 093°20'0 0.0
2018-Jan-22 10:30N 30°08' W 093°20'0 0.0
2018-Jan-22 10:00N 30°08' W 093°20'0 0.0
2018-Jan-22 09:30N 30°08' W 093°20'0 0.0
2018-Jan-22 09:00N 30°08' W 093°20'0 0.0
2018-Jan-22 08:30N 30°08' W 093°20'0 0.0
2018-Jan-22 08:00N 30°08' W 093°20'0 0.0
2018-Jan-22 07:30N 30°08' W 093°20'0 0.0
2018-Jan-22 07:00N 30°08' W 093°20'0 0.0
2018-Jan-22 06:30N 30°08' W 093°20'0 0.0
2018-Jan-22 06:00N 30°08' W 093°20'0 0.0
2018-Jan-22 05:30N 30°08' W 093°20'0 0.0
2018-Jan-22 05:00N 30°08' W 093°20'0 0.0
2018-Jan-22 04:30N 30°08' W 093°20'0 0.0
2018-Jan-22 04:00N 30°08' W 093°20'0 0.0
2018-Jan-22 03:30N 30°08' W 093°20'0 0.0
2018-Jan-22 03:00N 30°08' W 093°20'0 0.0
2018-Jan-22 02:30N 30°08' W 093°20'0 0.0
2018-Jan-22 02:00N 30°08' W 093°20'0 0.0
2018-Jan-22 01:30N 30°08' W 093°20'0 0.0
2018-Jan-22 01:00N 30°08' W 093°20'0 0.0
2018-Jan-22 00:30N 30°08' W 093°20'0 0.0
2018-Jan-22 00:00N 30°08' W 093°20'0 0.0
2018-Jan-21 23:30N 30°08' W 093°20'0 0.0
2018-Jan-21 23:00N 30°08' W 093°20'0 0.0
2018-Jan-21 22:30N 30°08' W 093°20'0 0.0
2018-Jan-21 22:00N 30°08' W 093°20'0 0.0
2018-Jan-21 21:30N 30°08' W 093°20'0 0.0
2018-Jan-21 21:00N 30°08' W 093°20'0 0.0
2018-Jan-21 20:29N 30°08' W 093°20'0 0.0
2018-Jan-21 20:00N 30°08' W 093°20'0 0.1
2018-Jan-21 19:30N 30°08' W 093°20'0 0.1
2018-Jan-21 19:00N 30°08' W 093°20'0 0.1
2018-Jan-21 18:30N 30°08' W 093°20'0 0.2
2018-Jan-21 18:00N 30°08' W 093°20'1 1.1
2018-Jan-21 17:30N 30°09' W 093°20'2 3.3
2018-Jan-21 17:00N 30°10' W 093°19'3 5.1
2018-Jan-21 16:29N 30°12' W 093°17'2 3.9
2018-Jan-21 16:00N 30°13' W 093°15'0 0.5
2018-Jan-21 15:30N 30°14' W 093°15'1 2.0
2018-Jan-21 15:00N 30°13' W 093°16'4 7.3
2018-Jan-21 14:30N 30°11' W 093°19'2 4.6
2018-Jan-21 13:59N 30°08' W 093°20'0 0.0
2018-Jan-21 13:31N 30°08' W 093°20'0 0.0
2018-Jan-21 12:59N 30°08' W 093°20'0 0.0
2018-Jan-21 12:31N 30°08' W 093°20'0 0.0
2018-Jan-21 12:00N 30°08' W 093°20'0 0.0
2018-Jan-21 11:31N 30°08' W 093°20'0 0.0
2018-Jan-21 11:01N 30°08' W 093°20'0 0.0
2018-Jan-21 10:31N 30°08' W 093°20'0 0.0
2018-Jan-21 10:00N 30°08' W 093°20'0 0.0
2018-Jan-21 09:30N 30°08' W 093°20'0 0.0
2018-Jan-21 09:01N 30°08' W 093°20'0 0.0
2018-Jan-21 08:31N 30°08' W 093°20'0 0.0
2018-Jan-21 08:01N 30°08' W 093°20'0 0.0
2018-Jan-21 07:31N 30°08' W 093°20'0 0.0
2018-Jan-21 06:59N 30°08' W 093°20'0 0.0
2018-Jan-21 06:30N 30°08' W 093°20'0 0.0
2018-Jan-21 06:00N 30°08' W 093°20'0 0.1
2018-Jan-21 05:31N 30°08' W 093°20'0 0.0
2018-Jan-21 05:01N 30°08' W 093°20'0 0.1
2018-Jan-21 04:31N 30°08' W 093°20'0 0.0
2018-Jan-21 04:00N 30°08' W 093°20'0 0.0
2018-Jan-21 03:30N 30°08' W 093°20'0 0.0
2018-Jan-21 03:00N 30°08' W 093°20'0 0.0
2018-Jan-21 02:30N 30°08' W 093°20'0 0.0
2018-Jan-21 01:59N 30°08' W 093°20'0 0.1
2018-Jan-21 01:31N 30°08' W 093°20'0 0.0
2018-Jan-21 01:01N 30°08' W 093°20'0 0.1
2018-Jan-21 00:31N 30°08' W 093°20'0 0.0
2018-Jan-21 00:00N 30°08' W 093°20'0 0.0
2018-Jan-20 23:31N 30°08' W 093°20'0 0.1
2018-Jan-20 23:01N 30°08' W 093°20'0 0.0
2018-Jan-20 22:31N 30°08' W 093°20'0 0.1
2018-Jan-20 22:01N 30°08' W 093°20'0 0.9
2018-Jan-20 21:31N 30°09' W 093°20'0 0.0
2018-Jan-20 21:00N 30°09' W 093°20'0 0.0
2018-Jan-20 20:31N 30°09' W 093°20'0 0.0
2018-Jan-20 20:01N 30°09' W 093°20'0 0.0
2018-Jan-20 19:31N 30°09' W 093°20'0 0.9
2018-Jan-20 19:00N 30°08' W 093°20'0 0.5
2018-Jan-20 18:30N 30°08' W 093°20'0 0.4
2018-Jan-20 18:01N 30°08' W 093°20'0 0.0
2018-Jan-20 17:31N 30°08' W 093°20'0 0.0
2018-Jan-20 17:01N 30°08' W 093°20'0 0.1
2018-Jan-20 16:31N 30°08' W 093°20'0 0.1
2018-Jan-20 16:01N 30°08' W 093°20'0 0.0
2018-Jan-20 15:31N 30°08' W 093°20'4 7.0
2018-Jan-20 15:01N 30°11' W 093°18'3 5.6
2018-Jan-20 14:30N 30°13' W 093°16'1 1.0
2018-Jan-20 14:00N 30°14' W 093°15'3 5.8
2018-Jan-20 13:31N 30°12' W 093°18'3 6.4
2018-Jan-20 13:01N 30°09' W 093°20'1 1.7
2018-Jan-20 12:31N 30°08' W 093°20'0 0.0
2018-Jan-20 12:00N 30°08' W 093°20'0 0.1
2018-Jan-20 11:30N 30°08' W 093°20'0 0.0
2018-Jan-20 11:01N 30°08' W 093°20'0 0.1
2018-Jan-20 10:30N 30°08' W 093°20'0 0.0
2018-Jan-20 10:01N 30°08' W 093°20'0 0.0
2018-Jan-20 09:28N 30°08' W 093°20'0 0.0
2018-Jan-20 09:01N 30°08' W 093°20'0 0.0
2018-Jan-20 08:30N 30°08' W 093°20'0 0.0
2018-Jan-20 08:01N 30°08' W 093°20'0 0.0
2018-Jan-20 07:31N 30°08' W 093°20'0 0.0
2018-Jan-20 06:59N 30°08' W 093°20'0 0.0
2018-Jan-20 06:31N 30°08' W 093°20'0 0.0
2018-Jan-20 06:01N 30°08' W 093°20'0 0.0
2018-Jan-20 05:31N 30°08' W 093°20'0 0.0
2018-Jan-20 05:01N 30°08' W 093°20'0 0.0
2018-Jan-20 04:30N 30°08' W 093°20'0 0.0
2018-Jan-20 04:01N 30°08' W 093°20'0 0.0
2018-Jan-20 03:30N 30°08' W 093°20'0 0.1
2018-Jan-20 03:01N 30°08' W 093°20'0 0.0
2018-Jan-20 02:30N 30°08' W 093°20'0 0.0
2018-Jan-20 02:01N 30°08' W 093°20'0 0.0
2018-Jan-20 01:31N 30°08' W 093°20'0 0.0
2018-Jan-20 01:00N 30°08' W 093°20'0 0.0
2018-Jan-20 00:31N 30°08' W 093°20'0 0.0
2018-Jan-20 00:01N 30°08' W 093°20'0 0.0
2018-Jan-19 23:31N 30°08' W 093°20'0 0.0
2018-Jan-19 23:01N 30°08' W 093°20'0 0.0
2018-Jan-19 22:29N 30°08' W 093°20'0 0.0
2018-Jan-19 22:01N 30°08' W 093°20'0 0.0
2018-Jan-19 21:31N 30°08' W 093°20'0 0.0
2018-Jan-19 21:00N 30°08' W 093°20'0 0.0
2018-Jan-19 20:30N 30°08' W 093°20'0 0.0
2018-Jan-19 20:00N 30°08' W 093°20'0 0.8
2018-Jan-19 19:31N 30°09' W 093°20'1 1.8
2018-Jan-19 19:00N 30°10' W 093°19'1 1.8
2018-Jan-19 18:31N 30°09' W 093°20'0 0.0
2018-Jan-19 17:59N 30°09' W 093°20'0 0.0
2018-Jan-19 17:31N 30°09' W 093°20'0 0.6
2018-Jan-19 17:00N 30°08' W 093°20'2 3.2
2018-Jan-19 16:30N 30°10' W 093°19'4 7.4
2018-Jan-19 16:01N 30°12' W 093°16'1 2.8
2018-Jan-19 15:31N 30°14' W 093°15'2 4.8
2018-Jan-19 15:00N 30°12' W 093°17'2 5.1
2018-Jan-19 14:31N 30°10' W 093°19'1 2.8
2018-Jan-19 14:00N 30°09' W 093°20'0 0.7
2018-Jan-19 13:31N 30°08' W 093°20'0 0.3
2018-Jan-19 13:01N 30°08' W 093°20'0 0.0
2018-Jan-19 12:31N 30°08' W 093°20'0 0.0
2018-Jan-19 12:01N 30°08' W 093°20'0 0.0
2018-Jan-19 11:31N 30°08' W 093°20'0 0.0
2018-Jan-19 11:01N 30°08' W 093°20'0 0.0
2018-Jan-19 10:31N 30°08' W 093°20'0 0.0
2018-Jan-19 10:01N 30°08' W 093°20'0 0.0
2018-Jan-19 09:31N 30°08' W 093°20'0 0.0
2018-Jan-19 09:01N 30°08' W 093°20'0 0.0
2018-Jan-19 08:31N 30°08' W 093°20'0 0.0
2018-Jan-19 08:01N 30°08' W 093°20'0 0.0
2018-Jan-19 07:31N 30°08' W 093°20'0 0.0
2018-Jan-19 07:01N 30°08' W 093°20'0 0.0
2018-Jan-19 06:31N 30°08' W 093°20'0 0.0
2018-Jan-19 06:00N 30°08' W 093°20'0 0.0
2018-Jan-19 05:30N 30°08' W 093°20'0 0.1
2018-Jan-19 05:01N 30°08' W 093°20'0 0.0
2018-Jan-19 04:31N 30°08' W 093°20'0 0.0
2018-Jan-19 04:01N 30°08' W 093°20'0 0.1
2018-Jan-19 03:31N 30°08' W 093°20'0 0.0
2018-Jan-19 03:00N 30°08' W 093°20'0 0.0
2018-Jan-19 02:31N 30°08' W 093°20'0 0.0
2018-Jan-19 02:01N 30°08' W 093°20'0 0.0
2018-Jan-19 01:31N 30°08' W 093°20'0 0.0
2018-Jan-19 01:00N 30°08' W 093°20'0 0.0
2018-Jan-19 00:31N 30°08' W 093°20'0 0.0
2018-Jan-19 00:01N 30°08' W 093°20'0 0.0
2018-Jan-18 23:31N 30°08' W 093°20'0 0.0
2018-Jan-18 23:01N 30°08' W 093°20'0 0.0
2018-Jan-18 22:31N 30°08' W 093°20'0 0.1
2018-Jan-18 22:01N 30°08' W 093°20'0 0.1
2018-Jan-18 21:31N 30°08' W 093°20'4 7.5
2018-Jan-18 21:00N 30°12' W 093°18'3 5.7
2018-Jan-18 20:31N 30°14' W 093°15'2 3.9
2018-Jan-18 20:01N 30°12' W 093°17'4 7.2
2018-Jan-18 19:31N 30°10' W 093°20'1 1.7
2018-Jan-18 19:00N 30°09' W 093°20'0 0.8
2018-Jan-18 18:31N 30°08' W 093°20'0 0.2
2018-Jan-18 18:01N 30°08' W 093°20'0 0.0
2018-Jan-18 17:29N 30°08' W 093°20'0 0.0
2018-Jan-18 17:01N 30°08' W 093°20'0 0.0
2018-Jan-18 16:31N 30°08' W 093°20'0 0.0
2018-Jan-18 16:01N 30°08' W 093°20'0 0.0
2018-Jan-18 15:31N 30°08' W 093°20'0 0.0
2018-Jan-18 15:00N 30°08' W 093°20'0 0.0
2018-Jan-18 14:31N 30°08' W 093°20'0 0.1
2018-Jan-18 14:00N 30°08' W 093°20'0 0.2
2018-Jan-18 13:30N 30°08' W 093°20'0 0.0
2018-Jan-18 13:01N 30°08' W 093°20'0 0.0
2018-Jan-18 12:31N 30°08' W 093°20'0 0.0
2018-Jan-18 12:01N 30°08' W 093°20'0 0.0
2018-Jan-18 11:30N 30°08' W 093°20'0 0.0
2018-Jan-18 10:58N 30°08' W 093°20'0 0.0
2018-Jan-18 10:29N 30°08' W 093°20'0 0.1
2018-Jan-18 10:01N 30°08' W 093°20'0 0.1
2018-Jan-18 09:31N 30°08' W 093°20'0 0.0
2018-Jan-18 08:59N 30°08' W 093°20'0 0.0
2018-Jan-18 08:31N 30°08' W 093°20'0 0.0
2018-Jan-18 08:01N 30°08' W 093°20'0 0.0
2018-Jan-18 07:31N 30°08' W 093°20'0 0.0
2018-Jan-18 07:00N 30°08' W 093°20'0 0.0
2018-Jan-18 06:30N 30°08' W 093°20'0 0.0
2018-Jan-18 05:59N 30°08' W 093°20'0 0.0
2018-Jan-18 05:31N 30°08' W 093°20'0 0.0
2018-Jan-18 05:01N 30°08' W 093°20'0 0.0
2018-Jan-18 04:30N 30°08' W 093°20'0 0.1
2018-Jan-18 04:00N 30°08' W 093°20'0 0.1
2018-Jan-18 03:31N 30°08' W 093°20'0 0.0
2018-Jan-18 03:01N 30°08' W 093°20'0 0.0
2018-Jan-18 02:30N 30°08' W 093°20'0 0.0
2018-Jan-18 02:01N 30°08' W 093°20'0 0.0
2018-Jan-18 01:31N 30°08' W 093°20'0 0.0
2018-Jan-18 01:01N 30°08' W 093°20'0 0.0
2018-Jan-18 00:00N 30°08' W 093°20'0 0.2
2018-Jan-17 23:57N 30°08' W 093°20'  
Track history (hours):
 
Tides and Currents Weather Stations Pressure Air Temp Water Temp Dewpoint Dewpoint Depression Visibility Wind Speed Wind Dir Waves Ship Positions

God

Owner: Quality tug services LLC, broussard, LA. More information available from US FCC via Universal Licensing System and Coast Guard Vessel Documentation Center.

Last reported at 2018-Jan-22 15:30 UTC. Time now 2018-Jan-22 15:51 UTC.
Position N 30°08' W 093°20'.

Length 18 m; draft 3 m.

Type: Towing. MMSI: 367603820.

Date/timePositionNaut miles runAvg speedWind from/ knotsBaromVisibWave heightAir tempDewpointWater temp
2018-Jan-22 15:30N 30°08' W 093°20'0 0.1
2018-Jan-22 15:00N 30°08' W 093°20'0 0.1
2018-Jan-22 14:30N 30°08' W 093°20'0 0.0
2018-Jan-22 14:00N 30°08' W 093°20'0 0.0
2018-Jan-22 13:30N 30°08' W 093°20'0 0.0
2018-Jan-22 13:00N 30°08' W 093°20'0 0.0
2018-Jan-22 12:30N 30°08' W 093°20'0 0.0
2018-Jan-22 12:00N 30°08' W 093°20'0 0.0
2018-Jan-22 11:30N 30°08' W 093°20'0 0.0
2018-Jan-22 11:00N 30°08' W 093°20'0 0.0
2018-Jan-22 10:30N 30°08' W 093°20'0 0.0
2018-Jan-22 10:00N 30°08' W 093°20'0 0.0
2018-Jan-22 09:30N 30°08' W 093°20'0 0.0
2018-Jan-22 09:00N 30°08' W 093°20'0 0.0
2018-Jan-22 08:30N 30°08' W 093°20'0 0.0
2018-Jan-22 08:00N 30°08' W 093°20'0 0.0
2018-Jan-22 07:30N 30°08' W 093°20'0 0.0
2018-Jan-22 07:00N 30°08' W 093°20'0 0.0
2018-Jan-22 06:30N 30°08' W 093°20'0 0.0
2018-Jan-22 06:00N 30°08' W 093°20'0 0.0
2018-Jan-22 05:30N 30°08' W 093°20'0 0.0
2018-Jan-22 05:00N 30°08' W 093°20'0 0.0
2018-Jan-22 04:30N 30°08' W 093°20'0 0.0
2018-Jan-22 04:00N 30°08' W 093°20'0 0.0
2018-Jan-22 03:30N 30°08' W 093°20'0 0.0
2018-Jan-22 03:00N 30°08' W 093°20'0 0.0
2018-Jan-22 02:30N 30°08' W 093°20'0 0.0
2018-Jan-22 02:00N 30°08' W 093°20'0 0.0
2018-Jan-22 01:30N 30°08' W 093°20'0 0.0
2018-Jan-22 01:00N 30°08' W 093°20'0 0.0
2018-Jan-22 00:30N 30°08' W 093°20'0 0.0
2018-Jan-22 00:00N 30°08' W 093°20'0 0.0
2018-Jan-21 23:30N 30°08' W 093°20'0 0.0
2018-Jan-21 23:00N 30°08' W 093°20'0 0.0
2018-Jan-21 22:30N 30°08' W 093°20'0 0.0
2018-Jan-21 22:00N 30°08' W 093°20'0 0.0
2018-Jan-21 21:30N 30°08' W 093°20'0 0.0
2018-Jan-21 21:00N 30°08' W 093°20'0 0.0
2018-Jan-21 20:29N 30°08' W 093°20'0 0.0
2018-Jan-21 20:00N 30°08' W 093°20'0 0.1
2018-Jan-21 19:30N 30°08' W 093°20'0 0.1
2018-Jan-21 19:00N 30°08' W 093°20'0 0.1
2018-Jan-21 18:30N 30°08' W 093°20'0 0.2
2018-Jan-21 18:00N 30°08' W 093°20'1 1.1
2018-Jan-21 17:30N 30°09' W 093°20'2 3.3
2018-Jan-21 17:00N 30°10' W 093°19'3 5.1
2018-Jan-21 16:29N 30°12' W 093°17'2 3.9
2018-Jan-21 16:00N 30°13' W 093°15'0 0.5
2018-Jan-21 15:30N 30°14' W 093°15'1 2.0
2018-Jan-21 15:00N 30°13' W 093°16'4 7.3
2018-Jan-21 14:30N 30°11' W 093°19'2 4.6
2018-Jan-21 13:59N 30°08' W 093°20'0 0.0
2018-Jan-21 13:31N 30°08' W 093°20'0 0.0
2018-Jan-21 12:59N 30°08' W 093°20'0 0.0
2018-Jan-21 12:31N 30°08' W 093°20'0 0.0
2018-Jan-21 12:00N 30°08' W 093°20'0 0.0
2018-Jan-21 11:31N 30°08' W 093°20'0 0.0
2018-Jan-21 11:01N 30°08' W 093°20'0 0.0
2018-Jan-21 10:31N 30°08' W 093°20'0 0.0
2018-Jan-21 10:00N 30°08' W 093°20'0 0.0
2018-Jan-21 09:30N 30°08' W 093°20'0 0.0
2018-Jan-21 09:01N 30°08' W 093°20'0 0.0
2018-Jan-21 08:31N 30°08' W 093°20'0 0.0
2018-Jan-21 08:01N 30°08' W 093°20'0 0.0
2018-Jan-21 07:31N 30°08' W 093°20'0 0.0
2018-Jan-21 06:59N 30°08' W 093°20'0 0.0
2018-Jan-21 06:30N 30°08' W 093°20'0 0.0
2018-Jan-21 06:00N 30°08' W 093°20'0 0.1
2018-Jan-21 05:31N 30°08' W 093°20'0 0.0
2018-Jan-21 05:01N 30°08' W 093°20'0 0.1
2018-Jan-21 04:31N 30°08' W 093°20'0 0.0
2018-Jan-21 04:00N 30°08' W 093°20'0 0.0
2018-Jan-21 03:30N 30°08' W 093°20'0 0.0
2018-Jan-21 03:00N 30°08' W 093°20'0 0.0
2018-Jan-21 02:30N 30°08' W 093°20'0 0.0
2018-Jan-21 01:59N 30°08' W 093°20'0 0.1
2018-Jan-21 01:31N 30°08' W 093°20'0 0.0
2018-Jan-21 01:01N 30°08' W 093°20'0 0.1
2018-Jan-21 00:31N 30°08' W 093°20'0 0.0
2018-Jan-21 00:00N 30°08' W 093°20'0 0.0
2018-Jan-20 23:31N 30°08' W 093°20'0 0.1
2018-Jan-20 23:01N 30°08' W 093°20'0 0.0
2018-Jan-20 22:31N 30°08' W 093°20'0 0.1
2018-Jan-20 22:01N 30°08' W 093°20'0 0.9
2018-Jan-20 21:31N 30°09' W 093°20'0 0.0
2018-Jan-20 21:00N 30°09' W 093°20'0 0.0
2018-Jan-20 20:31N 30°09' W 093°20'0 0.0
2018-Jan-20 20:01N 30°09' W 093°20'0 0.0
2018-Jan-20 19:31N 30°09' W 093°20'0 0.9
2018-Jan-20 19:00N 30°08' W 093°20'0 0.5
2018-Jan-20 18:30N 30°08' W 093°20'0 0.4
2018-Jan-20 18:01N 30°08' W 093°20'0 0.0
2018-Jan-20 17:31N 30°08' W 093°20'0 0.0
2018-Jan-20 17:01N 30°08' W 093°20'0 0.1
2018-Jan-20 16:31N 30°08' W 093°20'0 0.1
2018-Jan-20 16:01N 30°08' W 093°20'0 0.0
2018-Jan-20 15:31N 30°08' W 093°20'4 7.0
2018-Jan-20 15:01N 30°11' W 093°18'3 5.6
2018-Jan-20 14:30N 30°13' W 093°16'1 1.0
2018-Jan-20 14:00N 30°14' W 093°15'3 5.8
2018-Jan-20 13:31N 30°12' W 093°18'3 6.4
2018-Jan-20 13:01N 30°09' W 093°20'1 1.7
2018-Jan-20 12:31N 30°08' W 093°20'0 0.0
2018-Jan-20 12:00N 30°08' W 093°20'0 0.1
2018-Jan-20 11:30N 30°08' W 093°20'0 0.0
2018-Jan-20 11:01N 30°08' W 093°20'0 0.1
2018-Jan-20 10:30N 30°08' W 093°20'0 0.0
2018-Jan-20 10:01N 30°08' W 093°20'0 0.0
2018-Jan-20 09:28N 30°08' W 093°20'0 0.0
2018-Jan-20 09:01N 30°08' W 093°20'0 0.0
2018-Jan-20 08:30N 30°08' W 093°20'0 0.0
2018-Jan-20 08:01N 30°08' W 093°20'0 0.0
2018-Jan-20 07:31N 30°08' W 093°20'0 0.0
2018-Jan-20 06:59N 30°08' W 093°20'0 0.0
2018-Jan-20 06:31N 30°08' W 093°20'0 0.0
2018-Jan-20 06:01N 30°08' W 093°20'0 0.0
2018-Jan-20 05:31N 30°08' W 093°20'0 0.0
2018-Jan-20 05:01N 30°08' W 093°20'0 0.0
2018-Jan-20 04:30N 30°08' W 093°20'0 0.0
2018-Jan-20 04:01N 30°08' W 093°20'0 0.0
2018-Jan-20 03:30N 30°08' W 093°20'0 0.1
2018-Jan-20 03:01N 30°08' W 093°20'0 0.0
2018-Jan-20 02:30N 30°08' W 093°20'0 0.0
2018-Jan-20 02:01N 30°08' W 093°20'0 0.0
2018-Jan-20 01:31N 30°08' W 093°20'0 0.0
2018-Jan-20 01:00N 30°08' W 093°20'0 0.0
2018-Jan-20 00:31N 30°08' W 093°20'0 0.0
2018-Jan-20 00:01N 30°08' W 093°20'0 0.0
2018-Jan-19 23:31N 30°08' W 093°20'0 0.0
2018-Jan-19 23:01N 30°08' W 093°20'0 0.0
2018-Jan-19 22:29N 30°08' W 093°20'0 0.0
2018-Jan-19 22:01N 30°08' W 093°20'0 0.0
2018-Jan-19 21:31N 30°08' W 093°20'0 0.0
2018-Jan-19 21:00N 30°08' W 093°20'0 0.0
2018-Jan-19 20:30N 30°08' W 093°20'0 0.0
2018-Jan-19 20:00N 30°08' W 093°20'0 0.8
2018-Jan-19 19:31N 30°09' W 093°20'1 1.8
2018-Jan-19 19:00N 30°10' W 093°19'1 1.8
2018-Jan-19 18:31N 30°09' W 093°20'0 0.0
2018-Jan-19 17:59N 30°09' W 093°20'0 0.0
2018-Jan-19 17:31N 30°09' W 093°20'0 0.6
2018-Jan-19 17:00N 30°08' W 093°20'2 3.2
2018-Jan-19 16:30N 30°10' W 093°19'4 7.4
2018-Jan-19 16:01N 30°12' W 093°16'1 2.8
2018-Jan-19 15:31N 30°14' W 093°15'2 4.8
2018-Jan-19 15:00N 30°12' W 093°17'2 5.1
2018-Jan-19 14:31N 30°10' W 093°19'1 2.8
2018-Jan-19 14:00N 30°09' W 093°20'0 0.7
2018-Jan-19 13:31N 30°08' W 093°20'0 0.3
2018-Jan-19 13:01N 30°08' W 093°20'0 0.0
2018-Jan-19 12:31N 30°08' W 093°20'0 0.0
2018-Jan-19 12:01N 30°08' W 093°20'0 0.0
2018-Jan-19 11:31N 30°08' W 093°20'0 0.0
2018-Jan-19 11:01N 30°08' W 093°20'0 0.0
2018-Jan-19 10:31N 30°08' W 093°20'0 0.0
2018-Jan-19 10:01N 30°08' W 093°20'0 0.0
2018-Jan-19 09:31N 30°08' W 093°20'0 0.0
2018-Jan-19 09:01N 30°08' W 093°20'0 0.0
2018-Jan-19 08:31N 30°08' W 093°20'0 0.0
2018-Jan-19 08:01N 30°08' W 093°20'0 0.0
2018-Jan-19 07:31N 30°08' W 093°20'0 0.0
2018-Jan-19 07:01N 30°08' W 093°20'0 0.0
2018-Jan-19 06:31N 30°08' W 093°20'0 0.0
2018-Jan-19 06:00N 30°08' W 093°20'0 0.0
2018-Jan-19 05:30N 30°08' W 093°20'0 0.1
2018-Jan-19 05:01N 30°08' W 093°20'0 0.0
2018-Jan-19 04:31N 30°08' W 093°20'0 0.0
2018-Jan-19 04:01N 30°08' W 093°20'0 0.1
2018-Jan-19 03:31N 30°08' W 093°20'0 0.0
2018-Jan-19 03:00N 30°08' W 093°20'0 0.0
2018-Jan-19 02:31N 30°08' W 093°20'0 0.0
2018-Jan-19 02:01N 30°08' W 093°20'0 0.0
2018-Jan-19 01:31N 30°08' W 093°20'0 0.0
2018-Jan-19 01:00N 30°08' W 093°20'0 0.0
2018-Jan-19 00:31N 30°08' W 093°20'0 0.0
2018-Jan-19 00:01N 30°08' W 093°20'0 0.0
2018-Jan-18 23:31N 30°08' W 093°20'0 0.0
2018-Jan-18 23:01N 30°08' W 093°20'0 0.0
2018-Jan-18 22:31N 30°08' W 093°20'0 0.1
2018-Jan-18 22:01N 30°08' W 093°20'0 0.1
2018-Jan-18 21:31N 30°08' W 093°20'4 7.5
2018-Jan-18 21:00N 30°12' W 093°18'3 5.7
2018-Jan-18 20:31N 30°14' W 093°15'2 3.9
2018-Jan-18 20:01N 30°12' W 093°17'4 7.2
2018-Jan-18 19:31N 30°10' W 093°20'1 1.7
2018-Jan-18 19:00N 30°09' W 093°20'0 0.8
2018-Jan-18 18:31N 30°08' W 093°20'0 0.2
2018-Jan-18 18:01N 30°08' W 093°20'0 0.0
2018-Jan-18 17:29N 30°08' W 093°20'0 0.0
2018-Jan-18 17:01N 30°08' W 093°20'0 0.0
2018-Jan-18 16:31N 30°08' W 093°20'0 0.0
2018-Jan-18 16:01N 30°08' W 093°20'0 0.0
2018-Jan-18 15:31N 30°08' W 093°20'0 0.0
2018-Jan-18 15:00N 30°08' W 093°20'0 0.0
2018-Jan-18 14:31N 30°08' W 093°20'0 0.1
2018-Jan-18 14:00N 30°08' W 093°20'0 0.2
2018-Jan-18 13:30N 30°08' W 093°20'0 0.0
2018-Jan-18 13:01N 30°08' W 093°20'0 0.0
2018-Jan-18 12:31N 30°08' W 093°20'0 0.0
2018-Jan-18 12:01N 30°08' W 093°20'0 0.0
2018-Jan-18 11:30N 30°08' W 093°20'0 0.0
2018-Jan-18 10:58N 30°08' W 093°20'0 0.0
2018-Jan-18 10:29N 30°08' W 093°20'0 0.1
2018-Jan-18 10:01N 30°08' W 093°20'0 0.1
2018-Jan-18 09:31N 30°08' W 093°20'0 0.0
2018-Jan-18 08:59N 30°08' W 093°20'0 0.0
2018-Jan-18 08:31N 30°08' W 093°20'0 0.0
2018-Jan-18 08:01N 30°08' W 093°20'0 0.0
2018-Jan-18 07:31N 30°08' W 093°20'0 0.0
2018-Jan-18 07:00N 30°08' W 093°20'0 0.0
2018-Jan-18 06:30N 30°08' W 093°20'0 0.0
2018-Jan-18 05:59N 30°08' W 093°20'0 0.0
2018-Jan-18 05:31N 30°08' W 093°20'0 0.0
2018-Jan-18 05:01N 30°08' W 093°20'0 0.0
2018-Jan-18 04:30N 30°08' W 093°20'0 0.1
2018-Jan-18 04:00N 30°08' W 093°20'0 0.1
2018-Jan-18 03:31N 30°08' W 093°20'0 0.0
2018-Jan-18 03:01N 30°08' W 093°20'0 0.0
2018-Jan-18 02:30N 30°08' W 093°20'0 0.0
2018-Jan-18 02:01N 30°08' W 093°20'0 0.0
2018-Jan-18 01:31N 30°08' W 093°20'0 0.0
2018-Jan-18 01:01N 30°08' W 093°20'0 0.0
2018-Jan-18 00:00N 30°08' W 093°20'0 0.2
2018-Jan-17 23:57N 30°08' W 093°20'  

Dump ship's entire track history